Time;durP1;ratioP1;P1;durP2;ratioP2;P2;SDS_P1;SDS_P2;PMS_P1;PMS_P2;Temp;Humidity;BMP_temperature;BMP_pressure;BME280_temperature;BME280_humidity;BME280_pressure;Samples;Min_cycle;Max_cycle;Signal;HPM_P1;HPM_P2
2022/05/11 00:00:58;;;;;;;6.30;3.30;;;14.40;99.90;;;;;;5115261;27;20524;-69
2022/05/11 00:03:24;;;;;;;5.30;3.97;;;14.30;99.90;;;;;;5123788;27;20821;-68
2022/05/11 00:05:50;;;;;;;6.20;3.47;;;14.30;99.90;;;;;;5117447;27;20465;-68
2022/05/11 00:08:16;;;;;;;8.70;4.20;;;14.20;99.90;;;;;;5122960;27;20425;-69
2022/05/11 00:10:42;;;;;;;6.03;2.97;;;14.20;99.90;;;;;;5091004;28;20270;-70
2022/05/11 00:13:07;;;;;;;5.90;3.57;;;14.10;99.90;;;;;;5120610;27;20194;-68
2022/05/11 00:15:33;;;;;;;11.10;4.23;;;14.10;99.90;;;;;;5125443;27;20209;-70
2022/05/11 00:17:59;;;;;;;5.10;3.10;;;14.10;99.90;;;;;;5124934;27;20559;-69
2022/05/11 00:20:26;;;;;;;10.70;3.77;;;14.10;99.90;;;;;;5124811;27;20187;-69
2022/05/11 00:22:56;;;;;;;5.87;3.63;;;14.00;99.90;;;;;;5123512;27;20247;-69
2022/05/11 00:25:27;;;;;;;35.13;4.40;;;14.00;99.90;;;;;;5123979;27;20468;-68
2022/05/11 00:27:57;;;;;;;7.90;3.40;;;13.90;99.90;;;;;;5123368;27;20451;-68
2022/05/11 00:30:25;;;;;;;6.87;4.20;;;13.90;99.90;;;;;;5111286;27;20437;-69
2022/05/11 00:32:56;;;;;;;6.83;3.10;;;13.90;99.90;;;;;;5115987;27;20772;-68
2022/05/11 00:35:23;;;;;;;8.00;3.77;;;13.80;99.90;;;;;;5123896;27;20524;-69
2022/05/11 00:37:49;;;;;;;6.30;3.57;;;13.80;99.90;;;;;;5127460;27;20516;-68
2022/05/11 00:40:17;;;;;;;8.00;4.20;;;13.80;99.90;;;;;;5119240;27;20973;-69
2022/05/11 00:42:43;;;;;;;8.27;3.33;;;13.90;99.90;;;;;;5123874;27;20437;-68
2022/05/11 00:45:09;;;;;;;9.30;4.10;;;13.90;99.90;;;;;;5122805;27;21002;-69
2022/05/11 00:47:44;;;;;;;8.07;4.10;;;13.90;99.90;;;;;;5124816;27;20183;-68
2022/05/11 00:50:16;;;;;;;6.57;3.90;;;14.00;99.90;;;;;;5122004;27;20431;-69
2022/05/11 00:52:47;;;;;;;6.80;3.60;;;14.00;99.90;;;;;;5120921;27;20512;-69
2022/05/11 00:55:34;;;;;;;7.20;3.50;;;14.10;99.90;;;;;;5125248;27;20440;-69
2022/05/11 00:58:17;;;;;;;5.67;3.80;;;14.10;99.90;;;;;;5119886;27;20415;-69
2022/05/11 01:00:44;;;;;;;7.53;3.10;;;14.10;99.90;;;;;;5118376;27;20429;-69
2022/05/11 01:03:14;;;;;;;6.93;3.80;;;14.10;99.90;;;;;;5120299;27;20424;-69
2022/05/11 01:05:44;;;;;;;7.33;4.10;;;14.00;99.90;;;;;;5119561;27;20558;-68
2022/05/11 01:08:12;;;;;;;4.93;2.87;;;14.00;99.90;;;;;;5120645;27;20483;-68
2022/05/11 01:10:38;;;;;;;4.10;2.90;;;13.90;99.90;;;;;;5121763;27;20479;-69
2022/05/11 01:13:08;;;;;;;9.63;4.30;;;13.80;99.90;;;;;;5115042;27;20460;-68
2022/05/11 01:15:34;;;;;;;8.93;3.37;;;13.80;99.90;;;;;;5126885;27;20203;-69
2022/05/11 01:18:06;;;;;;;5.87;3.20;;;13.70;99.90;;;;;;5121312;27;20469;-68
2022/05/11 01:20:35;;;;;;;14.20;3.20;;;13.60;99.90;;;;;;5114114;27;20425;-68
2022/05/11 01:23:22;;;;;;;11.80;4.20;;;13.60;99.90;;;;;;5116862;27;20849;-68
2022/05/11 01:25:48;;;;;;;9.33;4.40;;;13.50;99.90;;;;;;5121199;27;20842;-68
2022/05/11 01:28:16;;;;;;;6.53;3.83;;;13.50;99.90;;;;;;5122338;27;20417;-69
2022/05/11 01:30:51;;;;;;;7.33;4.27;;;13.40;99.90;;;;;;5110421;27;20192;-69
2022/05/11 01:33:24;;;;;;;11.97;4.33;;;13.40;99.90;;;;;;5109295;27;20432;-68
2022/05/11 01:36:15;;;;;;;5.10;3.37;;;13.30;99.90;;;;;;5112878;27;20467;-67
2022/05/11 01:38:43;;;;;;;4.70;3.40;;;13.30;99.90;;;;;;5126966;27;20447;-68
2022/05/11 01:41:23;;;;;;;9.33;4.13;;;13.20;99.90;;;;;;5118952;27;20493;-69
2022/05/11 01:43:50;;;;;;;6.43;3.50;;;13.10;99.90;;;;;;5127395;27;20423;-68
2022/05/11 01:46:17;;;;;;;10.60;4.10;;;13.10;99.90;;;;;;5127623;27;20762;-69
2022/05/11 01:48:43;;;;;;;8.33;3.60;;;13.10;99.90;;;;;;5126723;27;20428;-69
2022/05/11 01:51:11;;;;;;;7.30;3.97;;;13.00;99.90;;;;;;5098212;27;20449;-69
2022/05/11 01:53:36;;;;;;;10.00;4.20;;;13.00;99.90;;;;;;5122253;27;20420;-68
2022/05/11 01:56:03;;;;;;;9.33;3.80;;;13.00;99.90;;;;;;5120199;27;20509;-68
2022/05/11 01:58:29;;;;;;;8.90;3.87;;;12.90;99.90;;;;;;5121806;27;20197;-69
2022/05/11 02:00:55;;;;;;;9.63;4.60;;;12.90;99.90;;;;;;5116090;27;20457;-68
2022/05/11 02:03:21;;;;;;;7.87;4.07;;;12.90;99.90;;;;;;5120152;27;21227;-68
2022/05/11 02:08:33;;;;;;;6.30;3.80;;;12.90;99.90;;;;;;5121556;27;20449;-68
2022/05/11 02:10:59;;;;;;;5.33;3.47;;;12.90;99.90;;;;;;5118390;27;20436;-69
2022/05/11 02:13:25;;;;;;;7.43;3.80;;;12.90;99.90;;;;;;5121687;27;20512;-67
2022/05/11 02:15:50;;;;;;;9.20;4.97;;;13.00;99.90;;;;;;5124483;27;20899;-69
2022/05/11 02:18:16;;;;;;;8.80;3.67;;;13.00;99.90;;;;;;5124191;27;20186;-69
2022/05/11 02:20:43;;;;;;;7.80;3.77;;;12.90;99.90;;;;;;5089268;28;20183;-69
2022/05/11 02:23:08;;;;;;;10.13;4.37;;;12.90;99.90;;;;;;5112823;27;20216;-69
2022/05/11 02:25:34;;;;;;;7.50;4.30;;;13.00;99.90;;;;;;5122201;27;20472;-68
2022/05/11 02:28:00;;;;;;;10.00;4.47;;;12.90;99.90;;;;;;5111973;27;20179;-69
2022/05/11 02:30:28;;;;;;;7.37;3.63;;;13.00;99.90;;;;;;5119654;27;20179;-68
2022/05/11 02:32:55;;;;;;;5.63;3.80;;;13.10;99.90;;;;;;5120318;27;20179;-69
2022/05/11 02:35:22;;;;;;;6.90;4.20;;;13.00;99.90;;;;;;5120688;27;20489;-69
2022/05/11 02:37:55;;;;;;;7.83;4.47;;;13.20;99.90;;;;;;5114992;27;20447;-69
2022/05/11 02:40:27;;;;;;;6.50;3.63;;;13.30;99.90;;;;;;5121476;27;20420;-69
2022/05/11 02:42:53;;;;;;;6.70;4.20;;;13.40;99.90;;;;;;5118232;27;21235;-68
2022/05/11 02:45:19;;;;;;;10.97;3.27;;;13.50;99.90;;;;;;5120705;27;20468;-68
2022/05/11 02:47:47;;;;;;;5.20;3.37;;;13.60;99.90;;;;;;5117538;27;20282;-70
2022/05/11 02:50:16;;;;;;;4.93;2.93;;;13.80;99.90;;;;;;5119222;27;20503;-68
2022/05/11 02:52:42;;;;;;;5.40;3.20;;;13.80;99.90;;;;;;5117674;27;20434;-68
2022/05/11 02:55:09;;;;;;;6.17;3.33;;;13.70;99.90;;;;;;5118787;27;20440;-68
2022/05/11 02:57:34;;;;;;;7.23;4.20;;;13.70;99.90;;;;;;5119146;27;20183;-69
2022/05/11 03:00:00;;;;;;;5.97;2.90;;;13.70;99.90;;;;;;5113686;27;20419;-69
2022/05/11 03:02:26;;;;;;;10.63;3.33;;;13.70;99.90;;;;;;5127100;27;20262;-69
2022/05/11 03:04:52;;;;;;;7.50;3.73;;;13.70;99.90;;;;;;5123424;27;20213;-69
2022/05/11 03:07:18;;;;;;;10.53;3.20;;;13.60;99.90;;;;;;5111060;27;20427;-69
2022/05/11 03:09:44;;;;;;;6.13;3.50;;;13.60;99.90;;;;;;5120073;27;20376;-69
2022/05/11 03:12:11;;;;;;;8.70;3.60;;;13.60;99.90;;;;;;5117201;27;20599;-69
2022/05/11 03:14:37;;;;;;;4.53;3.17;;;13.50;99.90;;;;;;5113324;27;20227;-66
2022/05/11 03:17:03;;;;;;;9.23;4.30;;;13.50;99.90;;;;;;5116316;27;20425;-69
2022/05/11 03:19:29;;;;;;;6.53;3.70;;;13.60;99.90;;;;;;5112199;27;20470;-69
2022/05/11 03:21:55;;;;;;;6.87;4.03;;;13.70;99.90;;;;;;5113974;27;20842;-69
2022/05/11 03:24:21;;;;;;;7.93;4.10;;;13.70;99.90;;;;;;5119828;27;20198;-68
2022/05/11 03:26:47;;;;;;;7.80;3.90;;;13.80;99.90;;;;;;5091652;28;20478;-68
2022/05/11 03:29:12;;;;;;;6.83;3.90;;;13.90;99.90;;;;;;5117090;27;20243;-67
2022/05/11 03:31:39;;;;;;;7.90;3.67;;;13.90;99.90;;;;;;5125428;27;20969;-69
2022/05/11 03:36:51;;;;;;;6.23;3.33;;;13.90;99.90;;;;;;5113852;28;20432;-68
2022/05/11 03:39:18;;;;;;;6.03;3.80;;;13.90;99.90;;;;;;5117518;28;20417;-70
2022/05/11 03:41:47;;;;;;;7.87;4.60;;;14.00;99.90;;;;;;5118916;28;21187;-69
2022/05/11 03:44:13;;;;;;;7.30;3.37;;;14.00;99.90;;;;;;5119560;28;20926;-68
2022/05/11 03:46:39;;;;;;;5.70;3.57;;;14.00;99.90;;;;;;5116864;28;20446;-68
2022/05/11 03:49:04;;;;;;;6.97;3.50;;;14.00;99.90;;;;;;5087998;28;20193;-67
2022/05/11 03:51:30;;;;;;;8.40;3.60;;;14.00;99.90;;;;;;5115792;28;20218;-69
2022/05/11 03:53:56;;;;;;;5.13;2.97;;;14.00;99.90;;;;;;5121154;28;20183;-69
2022/05/11 03:56:22;;;;;;;7.20;4.37;;;14.10;99.90;;;;;;5115522;28;20211;-69
2022/05/11 03:58:48;;;;;;;7.00;3.70;;;14.10;99.90;;;;;;5122361;28;20949;-68
2022/05/11 04:01:14;;;;;;;8.03;3.60;;;14.10;99.90;;;;;;5111910;28;20416;-69
2022/05/11 04:03:41;;;;;;;6.40;3.23;;;14.20;99.90;;;;;;5121872;28;20259;-69
2022/05/11 04:06:07;;;;;;;7.63;4.27;;;14.20;99.90;;;;;;5111143;28;20575;-69
2022/05/11 04:08:33;;;;;;;6.30;3.40;;;14.20;99.90;;;;;;5117532;28;20535;-68
2022/05/11 04:10:59;;;;;;;7.00;3.67;;;14.20;99.90;;;;;;5104465;28;20869;-69
2022/05/11 04:13:25;;;;;;;8.40;3.57;;;14.20;99.90;;;;;;5121211;28;20191;-70
2022/05/11 04:15:52;;;;;;;5.63;3.33;;;14.30;99.90;;;;;;5112901;28;20456;-69
2022/05/11 04:18:19;;;;;;;6.23;3.37;;;14.30;99.90;;;;;;5120162;28;20657;-68
2022/05/11 04:20:45;;;;;;;5.53;3.40;;;14.30;99.90;;;;;;5121314;28;20428;-68
2022/05/11 04:23:12;;;;;;;8.00;3.40;;;14.30;99.90;;;;;;5118579;28;20911;-69
2022/05/11 04:25:38;;;;;;;5.47;3.53;;;14.30;99.90;;;;;;5088512;28;20551;-69
2022/05/11 04:28:11;;;;;;;5.97;3.60;;;14.30;99.90;;;;;;5113300;28;20733;-69
2022/05/11 04:30:37;;;;;;;9.40;4.50;;;14.30;99.90;;;;;;5115201;28;20998;-68
2022/05/11 04:33:03;;;;;;;7.07;3.53;;;14.20;99.90;;;;;;5119343;28;20419;-69
2022/05/11 04:35:32;;;;;;;6.90;3.80;;;14.20;99.90;;;;;;5117460;28;20452;-68
2022/05/11 04:38:02;;;;;;;9.50;3.70;;;14.30;99.90;;;;;;5115802;28;20177;-68
2022/05/11 04:40:29;;;;;;;7.67;3.30;;;14.30;99.90;;;;;;5119630;27;20996;-69
2022/05/11 04:42:55;;;;;;;6.90;3.50;;;14.30;99.90;;;;;;5121515;27;20424;-68
2022/05/11 04:45:21;;;;;;;5.73;3.50;;;14.30;99.90;;;;;;5119953;27;21017;-69
2022/05/11 04:47:46;;;;;;;5.17;3.40;;;14.20;99.90;;;;;;5118770;27;20531;-69
2022/05/11 04:50:16;;;;;;;7.70;3.90;;;14.10;99.90;;;;;;5120136;27;20172;-68
2022/05/11 04:52:42;;;;;;;5.00;3.37;;;14.10;99.90;;;;;;5115725;27;20210;-69
2022/05/11 04:55:10;;;;;;;7.23;3.63;;;14.10;99.90;;;;;;5122597;27;20453;-69
2022/05/11 04:57:36;;;;;;;7.13;3.23;;;14.10;99.90;;;;;;5110617;27;20186;-70
2022/05/11 05:00:09;;;;;;;5.13;2.80;;;14.10;99.90;;;;;;5120051;27;20421;-69
2022/05/11 05:02:35;;;;;;;6.20;3.50;;;14.10;99.90;;;;;;5125535;27;20797;-68
2022/05/11 05:05:03;;;;;;;7.10;3.70;;;14.20;99.90;;;;;;5121359;27;20502;-68
2022/05/11 05:07:29;;;;;;;5.97;3.50;;;14.10;99.90;;;;;;5118670;27;20171;-69
2022/05/11 05:09:54;;;;;;;7.93;3.90;;;14.10;99.90;;;;;;5117671;27;20437;-68
2022/05/11 05:12:20;;;;;;;9.10;4.13;;;14.10;99.90;;;;;;5120308;27;20716;-68
2022/05/11 05:14:45;;;;;;;7.03;3.67;;;14.10;99.90;;;;;;5120033;27;20230;-69
2022/05/11 05:17:13;;;;;;;7.00;4.20;;;14.20;99.90;;;;;;5123593;27;20696;-69
2022/05/11 05:19:41;;;;;;;9.97;4.30;;;14.20;99.90;;;;;;5117435;27;20256;-69
2022/05/11 05:22:07;;;;;;;4.80;2.70;;;14.30;99.90;;;;;;5122827;27;20431;-68
2022/05/11 05:24:32;;;;;;;8.60;3.67;;;14.40;99.90;;;;;;5117841;27;20979;-67
2022/05/11 05:26:59;;;;;;;5.17;2.90;;;14.50;99.90;;;;;;5123082;27;20174;-69
2022/05/11 05:32:09;;;;;;;6.80;3.97;;;14.60;99.90;;;;;;5121302;27;20434;-67
2022/05/11 05:34:35;;;;;;;7.00;3.43;;;14.60;99.90;;;;;;5106662;27;20444;-68
2022/05/11 05:37:01;;;;;;;6.33;3.40;;;14.70;99.90;;;;;;5119459;27;20405;-68
2022/05/11 05:39:27;;;;;;;9.03;3.93;;;14.70;99.90;;;;;;5108559;27;20437;-68
2022/05/11 05:41:52;;;;;;;4.90;2.53;;;14.80;99.90;;;;;;5122692;27;20556;-68
2022/05/11 05:44:19;;;;;;;8.27;4.00;;;14.90;99.90;;;;;;5114343;27;20187;-68
2022/05/11 05:46:45;;;;;;;7.77;3.73;;;15.00;99.90;;;;;;5123834;27;20900;-69
2022/05/11 05:49:12;;;;;;;10.00;3.70;;;15.10;99.90;;;;;;5116966;27;20936;-68
2022/05/11 05:51:39;;;;;;;6.57;3.50;;;15.20;99.90;;;;;;5117702;27;20437;-69
2022/05/11 05:54:05;;;;;;;9.53;3.77;;;15.30;99.90;;;;;;5126215;27;20432;-69
2022/05/11 05:56:32;;;;;;;4.90;2.90;;;15.40;99.90;;;;;;5118893;27;20448;-68
2022/05/11 05:59:05;;;;;;;5.83;3.27;;;15.50;99.90;;;;;;5117540;27;20478;-69
2022/05/11 06:01:32;;;;;;;5.83;3.10;;;15.70;99.90;;;;;;5113130;27;20469;-68
2022/05/11 06:03:58;;;;;;;5.17;3.10;;;15.80;99.90;;;;;;5111149;27;20434;-69
2022/05/11 06:06:25;;;;;;;4.03;2.60;;;15.90;99.90;;;;;;5102087;27;20498;-68
2022/05/11 06:08:50;;;;;;;9.00;2.87;;;16.00;99.90;;;;;;5115154;27;20429;-68
2022/05/11 06:11:16;;;;;;;7.43;3.00;;;16.10;99.90;;;;;;5110954;27;20483;-68
2022/05/11 06:13:45;;;;;;;5.93;3.20;;;16.20;99.90;;;;;;5109699;27;20179;-68
2022/05/11 06:16:15;;;;;;;5.07;2.93;;;16.30;99.90;;;;;;5092770;27;20223;-68
2022/05/11 06:18:43;;;;;;;5.30;3.23;;;16.50;99.90;;;;;;5113650;27;20482;-68
2022/05/11 06:21:10;;;;;;;3.70;2.50;;;16.60;99.90;;;;;;5103181;27;20425;-67
2022/05/11 06:23:36;;;;;;;5.83;2.17;;;16.70;99.90;;;;;;5105511;27;20442;-68
2022/05/11 06:26:02;;;;;;;3.97;2.50;;;16.80;99.60;;;;;;5105701;27;20469;-68
2022/05/11 06:28:28;;;;;;;5.27;2.90;;;16.90;99.50;;;;;;5087298;27;20183;-68
2022/05/11 06:30:54;;;;;;;5.80;2.87;;;17.00;99.30;;;;;;5106827;27;20508;-68
2022/05/11 06:33:19;;;;;;;8.20;3.50;;;17.10;99.30;;;;;;5083863;28;20332;-68
2022/05/11 06:35:45;;;;;;;3.80;2.80;;;17.30;99.10;;;;;;5076641;28;20279;-68
2022/05/11 06:38:11;;;;;;;4.43;2.70;;;17.40;98.50;;;;;;5117055;27;20247;-68
2022/05/11 06:40:38;;;;;;;5.60;2.87;;;17.50;98.60;;;;;;5114866;27;20444;-68
2022/05/11 06:43:04;;;;;;;6.30;3.43;;;17.60;98.60;;;;;;5103421;27;20261;-68
2022/05/11 06:45:30;;;;;;;5.53;3.40;;;17.70;98.20;;;;;;5087433;27;20461;-68
2022/05/11 06:47:57;;;;;;;3.60;2.40;;;17.80;98.10;;;;;;5114061;27;20501;-69
2022/05/11 06:50:27;;;;;;;4.37;3.13;;;17.90;97.80;;;;;;5080686;27;20176;-70
2022/05/11 06:52:54;;;;;;;6.50;3.70;;;18.00;97.90;;;;;;5111115;27;20425;-68
2022/05/11 07:00:48;;;;;;;7.57;2.80;;;18.50;96.70;;;;;;5114687;27;20453;-69
2022/05/11 07:03:14;;;;;;;3.90;2.27;;;18.80;96.70;;;;;;5085134;28;20540;-68
2022/05/11 07:05:41;;;;;;;3.80;1.83;;;18.90;96.10;;;;;;5117511;27;20206;-68
2022/05/11 07:08:08;;;;;;;7.20;2.70;;;19.20;96.00;;;;;;5113409;27;20428;-69
2022/05/11 07:12:17;;;;;;;5.63;2.23;;;19.40;95.70;;;;;;5112884;27;20580;-69
2022/05/11 07:13:30;;;;;;;4.97;2.50;;;19.50;94.90;;;;;;5109306;27;20448;-70
2022/05/11 07:15:56;;;;;;;4.67;2.23;;;19.80;94.90;;;;;;5116095;27;20836;-69
2022/05/11 07:18:22;;;;;;;3.90;2.33;;;20.10;94.40;;;;;;5116384;27;20456;-68
2022/05/11 07:20:48;;;;;;;14.43;2.67;;;20.40;93.80;;;;;;5087906;27;20180;-68
2022/05/11 07:23:14;;;;;;;3.80;2.57;;;20.70;93.30;;;;;;5099016;27;20190;-68
2022/05/11 07:25:40;;;;;;;3.30;1.90;;;21.10;92.70;;;;;;5106300;27;20486;-69
2022/05/11 07:28:06;;;;;;;3.20;2.20;;;21.50;92.30;;;;;;5084289;28;21212;-67
2022/05/11 07:30:34;;;;;;;4.93;2.73;;;21.90;91.50;;;;;;5105066;27;20233;-70
2022/05/11 07:33:01;;;;;;;5.00;2.77;;;22.30;91.70;;;;;;5103746;27;20194;-68
2022/05/11 07:35:28;;;;;;;8.53;2.43;;;23.30;90.00;;;;;;5073570;28;21060;-69
2022/05/11 07:37:54;;;;;;;2.20;1.53;;;24.40;85.50;;;;;;5083083;28;20931;-69
2022/05/11 07:40:21;;;;;;;3.63;1.93;;;24.60;82.20;;;;;;5121710;27;20484;-69
2022/05/11 07:42:47;;;;;;;4.03;2.03;;;25.10;81.10;;;;;;5111040;28;20187;-69
2022/05/11 07:45:14;;;;;;;3.75;2.10;;;25.50;79.90;;;;;;5111492;28;20217;-69
2022/05/11 07:47:40;;;;;;;5.07;2.92;;;26.00;78.70;;;;;;5107916;28;20220;-68
2022/05/11 07:50:13;;;;;;;14.55;2.92;;;26.40;76.90;;;;;;5070742;28;20274;-68
2022/05/11 07:52:39;;;;;;;4.60;2.78;;;26.20;76.90;;;;;;5110573;28;20199;-70
2022/05/11 07:55:05;;;;;;;3.95;2.40;;;26.00;75.70;;;;;;5121459;28;20301;-67
2022/05/11 08:00:15;;;;;;;4.63;2.38;;;26.20;74.10;;;;;;5119162;28;20825;-68
2022/05/11 08:02:41;;;;;;;4.68;2.38;;;26.40;74.80;;;;;;5091523;28;20187;-69
2022/05/11 08:05:10;;;;;;;3.88;2.35;;;26.40;74.90;;;;;;5115240;28;20213;-69
2022/05/11 08:07:39;;;;;;;2.63;2.08;;;27.00;74.10;;;;;;5113631;28;20179;-67
2022/05/11 08:10:07;;;;;;;3.47;2.10;;;27.00;73.80;;;;;;5102457;28;20179;-66
2022/05/11 08:12:33;;;;;;;4.30;2.72;;;27.30;71.70;;;;;;5112209;28;20612;-68
2022/05/11 08:14:59;;;;;;;3.42;2.45;;;27.30;71.40;;;;;;5119775;27;20257;-68
2022/05/11 08:17:31;;;;;;;6.05;2.47;;;27.30;73.40;;;;;;5117319;27;20183;-67
2022/05/11 08:19:59;;;;;;;4.07;2.40;;;27.80;72.70;;;;;;5122078;27;20235;-68
2022/05/11 08:22:26;;;;;;;5.88;2.70;;;27.80;70.60;;;;;;5095291;27;20186;-68
2022/05/11 08:24:51;;;;;;;5.53;2.78;;;27.50;70.40;;;;;;5121094;27;20206;-67
2022/05/11 08:27:21;;;;;;;4.25;2.38;;;28.10;70.70;;;;;;5116379;27;20192;-67
2022/05/11 08:35:16;;;;;;;4.70;2.20;;;28.60;67.50;;;;;;5107835;27;20255;-68
2022/05/11 08:37:42;;;;;;;4.78;2.40;;;28.40;67.90;;;;;;5121821;27;20182;-68
2022/05/11 08:40:17;;;;;;;4.18;2.47;;;28.50;66.90;;;;;;5124189;27;20474;-68
2022/05/11 08:42:42;;;;;;;3.90;2.40;;;28.50;67.40;;;;;;5123001;27;20185;-68
2022/05/11 08:45:09;;;;;;;5.03;2.05;;;29.10;66.50;;;;;;5103952;27;20213;-68
2022/05/11 08:47:44;;;;;;;4.35;2.05;;;29.00;65.80;;;;;;5115197;27;20187;-68
2022/05/11 08:50:23;;;;;;;5.50;3.10;;;29.00;68.00;;;;;;5120056;27;20170;-68
2022/05/11 08:53:20;;;;;;;3.40;2.05;;;29.10;66.60;;;;;;5116941;27;20187;-69
2022/05/11 08:55:49;;;;;;;4.03;2.28;;;28.80;64.20;;;;;;5108700;27;20215;-68
2022/05/11 08:58:45;;;;;;;4.07;2.53;;;28.20;66.10;;;;;;5120921;27;20189;-68
2022/05/11 09:01:22;;;;;;;3.83;1.90;;;28.10;66.50;;;;;;5107185;27;20425;-68
2022/05/11 09:03:53;;;;;;;5.88;2.28;;;28.20;66.20;;;;;;5110744;27;20183;-68
2022/05/11 09:06:24;;;;;;;3.80;2.13;;;28.20;67.40;;;;;;5106627;27;20206;-68
2022/05/11 09:08:50;;;;;;;4.82;2.67;;;28.00;67.60;;;;;;5107655;27;20266;-68
2022/05/11 09:11:24;;;;;;;5.07;2.60;;;27.90;67.00;;;;;;5107202;27;20275;-68
2022/05/11 09:13:50;;;;;;;14.02;2.40;;;27.70;67.60;;;;;;5108039;27;20777;-68
2022/05/11 09:16:56;;;;;;;4.70;2.70;;;27.50;68.60;;;;;;5110087;27;20218;-68
2022/05/11 09:19:33;;;;;;;5.05;2.95;;;27.50;68.40;;;;;;5094648;27;20630;-67
2022/05/11 09:22:10;;;;;;;10.85;3.30;;;27.30;69.30;;;;;;5118419;27;20905;-68
2022/05/11 09:24:58;;;;;;;5.00;2.50;;;27.20;68.90;;;;;;5121971;27;20310;-68
2022/05/11 09:27:36;;;;;;;8.27;3.05;;;26.90;67.70;;;;;;5121838;27;20190;-68
2022/05/11 09:30:18;;;;;;;5.78;2.30;;;26.80;68.50;;;;;;5120800;27;20182;-67
2022/05/11 09:32:44;;;;;;;4.70;2.33;;;27.10;71.40;;;;;;5117092;27;20717;-67
2022/05/11 09:35:20;;;;;;;6.40;2.35;;;27.10;66.80;;;;;;5118598;27;20226;-67
2022/05/11 09:38:19;;;;;;;4.78;2.70;;;27.20;68.10;;;;;;5122245;27;20188;-68
2022/05/11 09:41:01;;;;;;;3.83;2.42;;;27.30;68.90;;;;;;5094241;27;20666;-68
2022/05/11 09:43:52;;;;;;;11.07;3.17;;;27.70;66.90;;;;;;5122814;27;20220;-67
2022/05/11 09:46:31;;;;;;;3.58;2.05;;;27.50;68.20;;;;;;5114386;27;20205;-68
2022/05/11 09:49:15;;;;;;;16.38;2.83;;;27.30;67.30;;;;;;5082295;27;20267;-68
2022/05/11 09:51:47;;;;;;;6.53;2.55;;;26.80;69.00;;;;;;5107719;27;20197;-67
2022/05/11 09:54:18;;;;;;;3.75;2.70;;;26.60;68.90;;;;;;5109517;27;20183;-68
2022/05/11 09:56:56;;;;;;;3.92;1.92;;;26.70;68.50;;;;;;5122679;27;20188;-68
2022/05/11 09:59:37;;;;;;;3.05;2.00;;;26.80;65.90;;;;;;5115565;27;20198;-68
2022/05/11 10:02:25;;;;;;;3.03;1.70;;;26.90;67.50;;;;;;5106379;27;20270;-68
2022/05/11 10:05:05;;;;;;;4.07;2.17;;;27.10;64.50;;;;;;5099576;27;20206;-68
2022/05/11 10:07:37;;;;;;;3.53;1.98;;;27.30;65.10;;;;;;5118507;27;20293;-69
2022/05/11 10:10:12;;;;;;;3.03;1.53;;;26.80;63.00;;;;;;5110789;27;20225;-68
2022/05/11 10:12:41;;;;;;;3.90;2.10;;;26.60;66.10;;;;;;5113091;27;20174;-69
2022/05/11 10:23:52;;;;;;;2.53;1.60;;;26.50;64.90;;;;;;5118926;27;20518;-68
2022/05/11 10:26:30;;;;;;;4.00;2.33;;;26.40;64.70;;;;;;5091026;28;20235;-68
2022/05/11 10:29:26;;;;;;;4.13;1.80;;;26.60;65.20;;;;;;5114925;27;20431;-69
2022/05/11 10:32:03;;;;;;;4.13;2.03;;;26.60;63.50;;;;;;5105923;27;20432;-68
2022/05/11 10:34:42;;;;;;;4.00;2.33;;;26.30;62.80;;;;;;5106830;27;20427;-68
2022/05/11 10:37:15;;;;;;;5.90;2.43;;;26.20;61.70;;;;;;5117281;27;20423;-69
2022/05/11 10:40:13;;;;;;;3.03;1.83;;;26.10;64.30;;;;;;5100699;27;20433;-68
2022/05/11 10:42:49;;;;;;;2.53;1.60;;;26.20;64.90;;;;;;5104534;27;20459;-68
2022/05/11 10:45:38;;;;;;;3.00;1.67;;;26.20;63.60;;;;;;5105464;27;21121;-68
2022/05/11 10:48:05;;;;;;;3.00;1.80;;;26.50;62.20;;;;;;5109234;27;20425;-68
2022/05/11 10:50:56;;;;;;;2.53;1.50;;;26.50;62.00;;;;;;5106937;27;20409;-69
2022/05/11 10:53:40;;;;;;;4.03;1.93;;;26.60;62.10;;;;;;5108068;27;20428;-69
2022/05/11 10:56:15;;;;;;;3.63;2.13;;;26.60;63.00;;;;;;5108220;27;21381;-69
2022/05/11 10:58:59;;;;;;;3.90;2.23;;;26.60;61.10;;;;;;5118933;27;20423;-69
2022/05/11 11:01:34;;;;;;;5.07;2.13;;;26.60;63.80;;;;;;5107029;27;21102;-67
2022/05/11 11:04:17;;;;;;;4.33;1.60;;;26.90;61.60;;;;;;5112404;27;20424;-69
2022/05/11 11:07:14;;;;;;;8.83;2.03;;;26.90;60.70;;;;;;5119264;27;20492;-68
2022/05/11 11:10:10;;;;;;;9.57;1.70;;;27.00;62.20;;;;;;5117984;27;20862;-70
2022/05/11 11:13:04;;;;;;;7.50;2.17;;;27.10;60.10;;;;;;5116721;27;20454;-69
2022/05/11 11:15:33;;;;;;;8.93;3.10;;;27.10;60.80;;;;;;5111782;27;20214;-70
2022/05/11 11:18:02;;;;;;;5.80;2.30;;;27.10;61.10;;;;;;5112316;27;20519;-69
2022/05/11 11:20:31;;;;;;;4.03;2.13;;;27.00;61.10;;;;;;5114110;27;20839;-69
2022/05/11 11:23:15;;;;;;;5.93;1.80;;;27.20;60.90;;;;;;5115641;27;20921;-69
2022/05/11 11:26:01;;;;;;;8.07;1.70;;;27.30;57.80;;;;;;5117996;27;20301;-68
2022/05/11 11:28:51;;;;;;;3.03;1.63;;;27.20;59.20;;;;;;5115289;27;20175;-68
2022/05/11 11:31:19;;;;;;;15.73;2.10;;;27.20;58.30;;;;;;5106555;27;20235;-70
2022/05/11 11:33:54;;;;;;;5.60;2.00;;;27.30;57.10;;;;;;5108772;27;20596;-71
2022/05/11 11:36:28;;;;;;;2.40;1.30;;;27.30;58.70;;;;;;5116700;27;20251;-69
2022/05/11 11:38:58;;;;;;;3.33;1.80;;;27.40;55.70;;;;;;5115998;27;20231;-69
2022/05/11 11:41:28;;;;;;;5.50;1.80;;;27.50;56.10;;;;;;5113561;27;20438;-71
2022/05/11 11:44:03;;;;;;;3.30;1.60;;;27.50;57.50;;;;;;5106807;28;20194;-71
2022/05/11 11:46:40;;;;;;;4.50;2.03;;;27.60;58.20;;;;;;5099462;28;20286;-69
2022/05/11 11:49:32;;;;;;;2.97;1.20;;;27.80;58.60;;;;;;5110670;27;20602;-70
2022/05/11 11:52:05;;;;;;;5.73;1.40;;;27.90;56.10;;;;;;5117760;27;20186;-70
2022/05/11 11:54:37;;;;;;;6.60;1.97;;;27.60;55.40;;;;;;5112423;27;20174;-69
2022/05/11 11:57:04;;;;;;;4.23;2.00;;;27.70;55.70;;;;;;5114401;27;20175;-69
2022/05/11 11:59:29;;;;;;;6.90;1.97;;;27.90;55.90;;;;;;5111631;27;20646;-68
2022/05/11 12:02:11;;;;;;;5.50;1.80;;;28.20;55.90;;;;;;5093436;27;20258;-68
2022/05/11 12:04:44;;;;;;;7.53;2.40;;;28.10;54.50;;;;;;5111144;27;20299;-68
2022/05/11 12:16:09;;;;;;;2.97;1.27;;;28.00;52.50;;;;;;5115053;27;20213;-68
2022/05/11 12:18:38;;;;;;;9.77;2.40;;;28.00;51.10;;;;;;5113832;27;20214;-67
2022/05/11 12:21:11;;;;;;;3.17;1.67;;;27.80;52.20;;;;;;5110135;27;20720;-69
2022/05/11 12:23:46;;;;;;;15.20;1.77;;;27.90;52.10;;;;;;5120059;27;20266;-68
2022/05/11 12:26:33;;;;;;;21.30;5.50;;;28.00;52.30;;;;;;5109274;27;20208;-67
2022/05/11 12:31:57;;;;;;;7.07;1.90;;;28.00;52.70;;;;;;5112238;27;20263;-68
2022/05/11 12:34:26;;;;;;;13.43;2.00;;;28.10;53.80;;;;;;5113766;27;20182;-67
2022/05/11 12:36:53;;;;;;;2.90;1.30;;;28.20;55.00;;;;;;5115044;27;20183;-67
2022/05/11 12:39:32;;;;;;;2.80;1.37;;;28.00;53.80;;;;;;5124361;27;20207;-69
2022/05/11 12:41:58;;;;;;;2.80;1.53;;;28.00;55.00;;;;;;5100430;27;20178;-69
2022/05/11 12:44:30;;;;;;;7.13;2.23;;;28.00;53.20;;;;;;5120081;27;20183;-69
2022/05/11 12:46:58;;;;;;;2.83;1.43;;;28.00;53.00;;;;;;5130817;27;20282;-69
2022/05/11 12:49:26;;;;;;;7.33;2.20;;;28.10;51.50;;;;;;5134997;27;20195;-69
2022/05/11 12:52:01;;;;;;;6.57;1.87;;;28.20;52.60;;;;;;5146739;27;20209;-70
2022/05/11 12:54:29;;;;;;;3.60;2.03;;;28.30;54.40;;;;;;5123137;27;20216;-69
2022/05/11 12:57:17;;;;;;;2.20;1.30;;;28.50;53.40;;;;;;5124370;27;20167;-69
2022/05/11 12:59:55;;;;;;;2.58;1.73;;;28.40;53.00;;;;;;5126677;27;20183;-71
2022/05/11 13:02:27;;;;;;;7.50;2.40;;;28.60;52.10;;;;;;5118107;27;20677;-69
2022/05/11 13:04:59;;;;;;;4.53;1.73;;;28.20;52.60;;;;;;5116953;27;20198;-70
2022/05/11 13:07:40;;;;;;;6.65;1.48;;;28.30;52.80;;;;;;5115362;27;20686;-70
2022/05/11 13:10:07;;;;;;;5.83;1.40;;;28.40;54.40;;;;;;5087251;28;20183;-68
2022/05/11 13:12:34;;;;;;;2.50;1.60;;;28.60;51.90;;;;;;5118352;27;20193;-68
2022/05/11 13:15:01;;;;;;;3.60;1.93;;;28.60;52.20;;;;;;5118644;27;20244;-69
2022/05/11 13:17:39;;;;;;;4.27;1.40;;;28.50;52.00;;;;;;5115596;27;20183;-71
2022/05/11 13:20:18;;;;;;;2.17;1.20;;;28.50;52.20;;;;;;5113335;27;20183;-70
2022/05/11 13:22:56;;;;;;;4.15;1.73;;;28.60;50.40;;;;;;5110847;27;20190;-70
2022/05/11 13:25:37;;;;;;;2.13;1.20;;;28.60;51.60;;;;;;5105462;27;20257;-70
2022/05/11 13:28:29;;;;;;;4.10;1.67;;;28.60;50.00;;;;;;5080977;27;20168;-69
2022/05/11 13:31:01;;;;;;;2.17;1.38;;;28.70;50.00;;;;;;5108450;27;20194;-69
2022/05/11 13:33:33;;;;;;;4.28;1.55;;;28.70;50.20;;;;;;5108490;27;20183;-70
2022/05/11 13:36:14;;;;;;;2.63;1.60;;;28.50;51.20;;;;;;5086920;28;20207;-70
2022/05/11 13:38:48;;;;;;;2.88;1.88;;;28.40;50.90;;;;;;5109413;27;20179;-69
2022/05/11 13:41:18;;;;;;;15.20;1.63;;;28.60;49.40;;;;;;5105939;27;20281;-70
2022/05/11 13:43:49;;;;;;;3.10;1.50;;;28.80;50.40;;;;;;5109943;27;20187;-69
2022/05/11 13:48:11;;;;;;;3.03;1.70;;;28.60;49.70;;;;;;5108940;27;20218;-70